createdAt,value
2023-02-13T01:22:09.962Z,7.40
2023-02-13T01:24:36.809Z,7.40
2023-02-13T01:27:03.675Z,7.40
2023-02-13T01:29:30.462Z,7.40
2023-02-13T01:31:57.384Z,7.50
2023-02-13T01:34:28.525Z,7.40
2023-02-13T01:36:55.422Z,7.50
2023-02-13T01:39:24.846Z,7.50
2023-02-13T01:41:51.658Z,7.50
2023-02-13T01:44:50.782Z,7.50
2023-02-13T01:47:35.102Z,7.50
2023-02-13T01:50:39.772Z,7.40
2023-02-13T01:53:19.837Z,7.40
2023-02-13T01:55:49.911Z,7.30
2023-02-13T01:58:18.749Z,7.30
2023-02-13T02:00:49.723Z,7.30
2023-02-13T02:03:22.079Z,7.30
2023-02-13T02:05:51.072Z,7.40
2023-02-13T02:08:17.893Z,7.30
2023-02-13T02:10:44.807Z,7.40
2023-02-13T02:13:13.496Z,7.40
2023-02-13T02:15:41.300Z,7.40
2023-02-13T02:18:22.113Z,7.40
2023-02-13T02:21:10.448Z,7.50
2023-02-13T02:24:06.792Z,7.50
2023-02-13T02:26:48.869Z,7.40
2023-02-13T02:29:24.316Z,7.40
2023-02-13T02:32:05.971Z,7.40
2023-02-13T02:34:35.880Z,7.40
2023-02-13T02:37:14.970Z,7.40
2023-02-13T02:40:16.936Z,7.30
2023-02-13T02:42:59.892Z,7.20
2023-02-13T02:45:32.396Z,7.20
2023-02-13T02:48:46.714Z,7.20
2023-02-13T02:51:27.133Z,7.10
2023-02-13T02:54:35.964Z,7.10
2023-02-13T02:57:09.352Z,7.00
2023-02-13T02:59:54.834Z,6.90
2023-02-13T03:02:40.088Z,6.80
2023-02-13T03:05:34.185Z,6.70
2023-02-13T03:08:02.590Z,6.60
2023-02-13T03:10:50.064Z,6.50
2023-02-13T03:13:44.288Z,6.40
2023-02-13T03:16:32.875Z,6.40
2023-02-13T03:19:18.316Z,6.40
2023-02-13T03:22:18.436Z,6.30
2023-02-13T03:25:00.513Z,6.20
2023-02-13T03:27:49.904Z,6.20
2023-02-13T03:30:40.813Z,6.10
2023-02-13T03:33:16.655Z,6.00
2023-02-13T03:36:33.235Z,6.00
2023-02-13T03:39:02.966Z,5.90
2023-02-13T03:41:34.500Z,5.90
2023-02-13T03:44:13.212Z,5.80
2023-02-13T03:46:42.189Z,5.80
2023-02-13T03:49:36.379Z,5.80
2023-02-13T03:52:07.333Z,5.70
2023-02-13T03:55:08.620Z,5.70
2023-02-13T03:57:54.600Z,5.70
2023-02-13T04:00:21.530Z,5.60
2023-02-13T04:03:14.935Z,5.50
2023-02-13T04:05:44.464Z,5.40
2023-02-13T04:08:11.621Z,5.30
2023-02-13T04:10:42.935Z,5.30
2023-02-13T04:13:30.210Z,5.20
2023-02-13T04:16:01.336Z,5.20
2023-02-13T04:18:29.813Z,5.10
2023-02-13T04:20:56.979Z,5.10
2023-02-13T04:23:23.996Z,5.10
2023-02-13T04:25:52.234Z,5.10
2023-02-13T04:28:19.076Z,5.00
2023-02-13T04:30:46.058Z,4.80
2023-02-13T04:33:12.928Z,4.80
2023-02-13T04:35:39.719Z,4.80
2023-02-13T04:38:06.597Z,4.70
2023-02-13T04:40:33.516Z,4.70
2023-02-13T04:43:00.773Z,4.70
2023-02-13T04:45:27.622Z,4.70
2023-02-13T04:47:55.321Z,4.70
2023-02-13T04:50:22.297Z,4.60
2023-02-13T04:52:54.946Z,4.60
2023-02-13T04:55:22.809Z,4.60
2023-02-13T04:57:54.842Z,4.60
2023-02-13T05:00:22.502Z,4.50
2023-02-13T05:02:49.348Z,4.50
2023-02-13T05:05:16.148Z,4.50
2023-02-13T05:07:42.902Z,4.50
2023-02-13T05:10:10.952Z,4.50
2023-02-13T05:12:37.866Z,4.40
2023-02-13T05:15:05.776Z,4.40
2023-02-13T05:17:32.616Z,4.30
2023-02-13T05:19:59.960Z,4.30
2023-02-13T05:22:45.173Z,4.20
2023-02-13T05:25:11.981Z,4.20
2023-02-13T05:27:38.737Z,4.10
2023-02-13T05:30:06.142Z,4.10
2023-02-13T05:32:32.901Z,4.10
2023-02-13T05:34:59.636Z,4.00
2023-02-13T05:37:26.406Z,4.00
2023-02-13T05:39:53.159Z,4.00
2023-02-13T05:42:19.914Z,4.00
2023-02-13T05:44:46.732Z,3.80
2023-02-13T05:47:13.497Z,3.80
2023-02-13T05:49:40.334Z,3.80
2023-02-13T05:52:07.060Z,3.80
2023-02-13T05:54:34.081Z,3.80
2023-02-13T05:57:00.863Z,3.80
2023-02-13T05:59:27.772Z,3.80
2023-02-13T06:01:54.752Z,3.80
2023-02-13T06:04:21.656Z,3.80
2023-02-13T06:06:48.387Z,3.80
2023-02-13T06:09:15.177Z,3.80
2023-02-13T06:11:42.026Z,3.80
2023-02-13T06:14:09.050Z,3.70
2023-02-13T06:16:35.844Z,3.70
2023-02-13T06:19:03.075Z,3.70
2023-02-13T06:21:30.025Z,3.70
2023-02-13T06:23:57.058Z,3.60
2023-02-13T06:26:24.251Z,3.60
2023-02-13T06:28:51.193Z,3.60
2023-02-13T06:31:18.162Z,3.50
2023-02-13T06:33:45.185Z,3.40
2023-02-13T06:36:12.019Z,3.40
2023-02-13T06:38:38.920Z,3.30
2023-02-13T06:41:07.006Z,3.20
2023-02-13T06:43:33.942Z,3.20
2023-02-13T06:46:02.508Z,3.20
2023-02-13T06:48:29.308Z,3.20
2023-02-13T06:50:56.501Z,3.10
2023-02-13T06:53:24.974Z,3.20
2023-02-13T06:55:54.748Z,3.20
2023-02-13T06:58:22.165Z,3.10
2023-02-13T07:00:49.637Z,3.00
2023-02-13T07:03:16.543Z,3.00
2023-02-13T07:05:44.059Z,3.10
2023-02-13T07:08:11.572Z,3.00
2023-02-13T07:10:39.151Z,3.00
2023-02-13T07:13:06.484Z,3.00
2023-02-13T07:15:36.608Z,3.00
2023-02-13T07:18:03.983Z,3.00
2023-02-13T07:20:30.956Z,3.00
2023-02-13T07:23:01.879Z,3.00
2023-02-13T07:25:28.818Z,3.00
2023-02-13T07:27:55.874Z,3.00
2023-02-13T07:30:22.773Z,3.00
2023-02-13T07:32:49.694Z,3.00
2023-02-13T07:35:16.618Z,3.00
2023-02-13T07:37:43.516Z,3.00
2023-02-13T07:40:11.108Z,3.00
2023-02-13T07:42:37.965Z,3.00
2023-02-13T07:45:06.250Z,3.00
2023-02-13T07:47:34.189Z,3.10
2023-02-13T07:50:02.274Z,3.10
2023-02-13T07:52:29.131Z,3.10
2023-02-13T07:54:56.005Z,3.10
2023-02-13T07:57:23.053Z,3.10
2023-02-13T07:59:49.892Z,3.10
2023-02-13T08:02:16.803Z,3.10
2023-02-13T08:04:46.752Z,3.10
2023-02-13T08:07:14.367Z,3.10
2023-02-13T08:09:59.696Z,3.10
2023-02-13T08:12:26.596Z,3.10
2023-02-13T08:14:53.902Z,3.10
2023-02-13T08:17:20.755Z,3.10
2023-02-13T08:19:47.673Z,3.10
2023-02-13T08:22:14.575Z,3.10
2023-02-13T08:24:41.452Z,3.10
2023-02-13T08:27:12.041Z,3.20
2023-02-13T08:29:38.948Z,3.30
2023-02-13T08:32:06.082Z,3.40
2023-02-13T08:34:33.023Z,3.40
2023-02-13T08:37:01.056Z,3.40
2023-02-13T08:39:27.894Z,3.50
2023-02-13T08:41:54.831Z,3.50
2023-02-13T08:44:21.816Z,3.60
2023-02-13T08:46:48.714Z,3.70
2023-02-13T08:49:15.535Z,3.80
2023-02-13T08:51:42.491Z,3.80
2023-02-13T08:54:09.374Z,3.90
2023-02-13T08:56:36.287Z,4.00
2023-02-13T08:59:03.470Z,4.00
2023-02-13T09:01:30.392Z,4.10
2023-02-13T09:03:57.224Z,4.10
2023-02-13T09:06:26.338Z,4.20
2023-02-13T09:08:53.540Z,4.30
2023-02-13T09:11:23.275Z,4.40
2023-02-13T09:13:52.825Z,4.50
2023-02-13T09:16:19.741Z,4.60
2023-02-13T09:18:50.396Z,4.70
2023-02-13T09:21:17.498Z,4.80
2023-02-13T09:23:44.493Z,4.90
2023-02-13T09:26:12.716Z,5.00
2023-02-13T09:28:39.855Z,5.20
2023-02-13T09:31:11.498Z,5.30
2023-02-13T09:33:38.466Z,5.40
2023-02-13T09:36:12.285Z,5.50
2023-02-13T09:38:39.520Z,5.50
2023-02-13T09:41:31.348Z,5.70
2023-02-13T09:44:03.004Z,5.80
2023-02-13T09:46:33.791Z,5.80
2023-02-13T09:49:03.296Z,6.00
2023-02-13T09:51:30.150Z,6.10
2023-02-13T09:54:08.130Z,6.10
2023-02-13T09:56:54.800Z,6.10
2023-02-13T09:59:40.886Z,6.10
2023-02-13T10:02:35.704Z,6.20
2023-02-13T10:05:27.772Z,6.30
2023-02-13T10:08:29.562Z,6.40
2023-02-13T10:10:59.408Z,6.50
2023-02-13T10:13:45.934Z,6.60
2023-02-13T10:16:23.561Z,6.70
2023-02-13T10:18:54.278Z,6.70
2023-02-13T10:21:27.416Z,6.90
2023-02-13T10:24:12.276Z,6.90
2023-02-13T10:26:43.003Z,6.90
2023-02-13T10:29:36.615Z,7.00
2023-02-13T10:32:05.004Z,7.00
2023-02-13T10:34:36.422Z,7.10
2023-02-13T10:37:03.393Z,7.20
2023-02-13T10:39:30.753Z,7.30
2023-02-13T10:42:23.382Z,7.30
2023-02-13T10:45:27.331Z,7.30
2023-02-13T10:48:03.344Z,7.40
2023-02-13T10:50:41.815Z,7.40
2023-02-13T10:53:33.346Z,7.40
2023-02-13T10:56:14.472Z,7.50
2023-02-13T10:59:07.331Z,7.50
2023-02-13T11:01:54.406Z,7.60
2023-02-13T11:04:21.311Z,7.60
2023-02-13T11:06:58.453Z,7.60
2023-02-13T11:09:25.535Z,7.70
2023-02-13T11:11:52.543Z,7.80
2023-02-13T11:14:25.923Z,7.90
2023-02-13T11:17:01.852Z,7.90
2023-02-13T11:19:54.156Z,8.00
2023-02-13T11:22:32.347Z,8.00
2023-02-13T11:25:17.481Z,8.00
2023-02-13T11:27:44.364Z,8.00
2023-02-13T11:30:23.183Z,8.00
2023-02-13T11:33:01.500Z,8.10
2023-02-13T11:35:35.764Z,8.10
2023-02-13T11:38:11.664Z,8.10
2023-02-13T11:40:38.520Z,8.10
2023-02-13T11:43:08.430Z,8.20
2023-02-13T11:45:35.560Z,8.20
2023-02-13T11:48:02.640Z,8.30
2023-02-13T11:50:35.030Z,8.30
2023-02-13T11:53:07.491Z,8.20
2023-02-13T11:55:35.346Z,8.20
2023-02-13T11:58:03.176Z,8.20
2023-02-13T12:00:39.892Z,8.30
2023-02-13T12:03:30.547Z,8.40
2023-02-13T12:06:12.912Z,8.50
2023-02-13T12:08:40.585Z,8.50
2023-02-13T12:11:22.952Z,8.60
2023-02-13T12:13:49.878Z,8.60
2023-02-13T12:16:36.190Z,8.60
2023-02-13T12:19:12.004Z,8.70
2023-02-13T12:21:49.036Z,8.80
2023-02-13T12:24:24.972Z,8.90
2023-02-13T12:26:59.996Z,8.90
2023-02-13T12:29:39.189Z,9.00
2023-02-13T12:32:15.071Z,9.10
2023-02-13T12:35:00.110Z,9.10
2023-02-13T12:37:55.016Z,9.20
2023-02-13T12:40:43.499Z,9.20
2023-02-13T12:43:32.211Z,9.20
2023-02-13T12:46:02.074Z,9.30
2023-02-13T12:48:29.069Z,9.40
2023-02-13T12:51:20.451Z,9.40
2023-02-13T12:54:15.591Z,9.40
2023-02-13T12:57:06.871Z,9.40
2023-02-13T13:00:22.018Z,9.50
2023-02-13T13:03:26.634Z,9.50
2023-02-13T13:06:11.410Z,9.50
2023-02-13T13:08:51.038Z,9.40
2023-02-13T13:11:49.009Z,9.40
2023-02-13T13:14:34.664Z,9.40
2023-02-13T13:17:07.686Z,9.50
2023-02-13T13:19:43.715Z,9.60
2023-02-13T13:22:22.969Z,9.60
2023-02-13T13:25:13.860Z,9.60
2023-02-13T13:27:46.440Z,9.60
2023-02-13T13:30:13.263Z,9.60
2023-02-13T13:32:40.917Z,9.60
2023-02-13T13:35:15.927Z,9.60
2023-02-13T13:37:49.563Z,9.50
2023-02-13T13:40:32.996Z,9.50
2023-02-13T13:43:05.565Z,9.50
2023-02-13T13:45:35.650Z,9.60
2023-02-13T13:48:44.402Z,9.60
2023-02-13T13:51:14.100Z,9.70
2023-02-13T13:54:00.982Z,9.80
2023-02-13T13:56:47.149Z,9.90
2023-02-13T13:59:18.546Z,9.90
2023-02-13T14:01:45.639Z,9.90
2023-02-13T14:04:37.953Z,9.90
2023-02-13T14:07:04.893Z,10.00
2023-02-13T14:09:40.615Z,10.00
2023-02-13T14:12:25.676Z,10.00
2023-02-13T14:14:53.336Z,10.20
2023-02-13T14:17:45.157Z,10.20
2023-02-13T14:20:41.099Z,10.30
2023-02-13T14:23:16.738Z,10.30
2023-02-13T14:25:43.673Z,10.30
2023-02-13T14:28:24.453Z,10.30
2023-02-13T14:30:53.124Z,10.30
2023-02-13T14:33:39.031Z,10.30
2023-02-13T14:36:17.290Z,10.30
2023-02-13T14:38:44.222Z,10.30
2023-02-13T14:41:43.099Z,10.30
2023-02-13T14:44:20.834Z,10.30
2023-02-13T14:46:49.027Z,10.40
2023-02-13T14:49:18.355Z,10.40
2023-02-13T14:51:59.098Z,10.40
2023-02-13T14:54:37.064Z,10.40
2023-02-13T14:57:25.067Z,10.40
2023-02-13T15:00:23.230Z,10.40
2023-02-13T15:02:53.398Z,10.40
2023-02-13T15:05:20.358Z,10.40
2023-02-13T15:07:49.866Z,10.40
2023-02-13T15:10:40.652Z,10.50
2023-02-13T15:13:23.360Z,10.50
2023-02-13T15:15:54.449Z,10.50
2023-02-13T15:18:27.566Z,10.50
2023-02-13T15:20:56.552Z,10.50
2023-02-13T15:23:26.238Z,10.50
2023-02-13T15:26:00.753Z,10.50
2023-02-13T15:28:28.183Z,10.50
2023-02-13T15:31:00.882Z,10.50
2023-02-13T15:33:31.027Z,10.50
2023-02-13T15:35:59.948Z,10.50
2023-02-13T15:38:27.950Z,10.40
2023-02-13T15:41:20.082Z,10.40
2023-02-13T15:43:48.644Z,10.40
2023-02-13T15:46:29.714Z,10.40
2023-02-13T15:48:58.864Z,10.40
2023-02-13T15:51:30.548Z,10.40
2023-02-13T15:53:58.968Z,10.40
2023-02-13T15:56:26.212Z,10.30
2023-02-13T15:58:53.629Z,10.30
2023-02-13T16:01:20.607Z,10.30
2023-02-13T16:03:49.403Z,10.30
2023-02-13T16:06:17.477Z,10.20
2023-02-13T16:09:06.132Z,10.20
2023-02-13T16:11:35.060Z,10.20
2023-02-13T16:14:06.697Z,10.20
2023-02-13T16:16:55.561Z,10.20
2023-02-13T16:19:35.474Z,10.10
2023-02-13T16:22:16.407Z,10.10
2023-02-13T16:24:48.522Z,10.10
2023-02-13T16:27:15.555Z,10.00
2023-02-13T16:29:51.644Z,10.00
2023-02-13T16:32:23.416Z,10.00
2023-02-13T16:34:50.903Z,10.00
2023-02-13T16:37:33.299Z,10.00
2023-02-13T16:40:33.694Z,9.90
2023-02-13T16:43:38.265Z,9.90
2023-02-13T16:46:20.035Z,9.90
2023-02-13T16:49:01.755Z,9.80
2023-02-13T16:51:57.419Z,9.80
2023-02-13T16:54:48.040Z,9.70
2023-02-13T16:57:38.884Z,9.70
2023-02-13T17:00:24.446Z,9.70
2023-02-13T17:02:52.787Z,9.60
2023-02-13T17:05:24.253Z,9.60
2023-02-13T17:07:53.040Z,9.60
2023-02-13T17:10:31.211Z,9.50
2023-02-13T17:13:00.332Z,9.50
2023-02-13T17:15:28.760Z,9.50
2023-02-13T17:17:55.945Z,9.40
2023-02-13T17:20:24.838Z,9.30
2023-02-13T17:22:53.310Z,9.30
2023-02-13T17:25:22.502Z,9.30
2023-02-13T17:27:50.650Z,9.20
2023-02-13T17:30:19.633Z,9.20
2023-02-13T17:32:47.085Z,9.20
2023-02-13T17:35:14.660Z,9.10
2023-02-13T17:37:42.368Z,9.10
2023-02-13T17:40:13.991Z,9.00
2023-02-13T17:42:40.808Z,9.00
2023-02-13T17:45:08.073Z,8.90
2023-02-13T17:47:35.154Z,8.90
2023-02-13T17:50:12.431Z,8.80
2023-02-13T17:52:39.697Z,8.80
2023-02-13T17:55:08.441Z,8.70
2023-02-13T17:57:35.416Z,8.70
2023-02-13T18:00:04.709Z,8.70
2023-02-13T18:02:39.091Z,8.60
2023-02-13T18:05:06.720Z,8.50
2023-02-13T18:07:33.647Z,8.50
2023-02-13T18:10:00.520Z,8.40
2023-02-13T18:12:27.482Z,8.40
2023-02-13T18:14:54.572Z,8.40
2023-02-13T18:17:21.418Z,8.30
2023-02-13T18:19:50.426Z,8.30
2023-02-13T18:22:17.286Z,8.20
2023-02-13T18:24:44.178Z,8.20
2023-02-13T18:27:13.806Z,8.10
2023-02-13T18:29:40.843Z,8.10
2023-02-13T18:32:10.235Z,8.10
2023-02-13T18:34:38.109Z,8.10
2023-02-13T18:37:05.762Z,8.00
2023-02-13T18:39:32.793Z,8.00
2023-02-13T18:41:59.733Z,7.90
2023-02-13T18:44:28.607Z,7.90
2023-02-13T18:46:55.969Z,7.80
2023-02-13T18:49:23.048Z,7.70
2023-02-13T18:51:50.291Z,7.70
2023-02-13T18:54:18.076Z,7.60
2023-02-13T18:56:47.313Z,7.60
2023-02-13T18:59:14.273Z,7.50
2023-02-13T19:01:41.327Z,7.50
2023-02-13T19:04:08.275Z,7.40
2023-02-13T19:06:35.211Z,7.40
2023-02-13T19:09:02.036Z,7.30
2023-02-13T19:11:28.985Z,7.30
2023-02-13T19:13:58.374Z,7.30
2023-02-13T19:16:25.423Z,7.30
2023-02-13T19:18:53.794Z,7.20
2023-02-13T19:21:25.103Z,7.20
2023-02-13T19:23:52.725Z,7.10
2023-02-13T19:26:21.191Z,7.00
2023-02-13T19:28:48.272Z,7.00
2023-02-13T19:31:20.503Z,7.00
2023-02-13T19:33:47.807Z,6.90
2023-02-13T19:36:18.577Z,6.90
2023-02-13T19:38:46.517Z,6.80
2023-02-13T19:41:15.622Z,6.80
2023-02-13T19:43:49.916Z,6.70
2023-02-13T19:46:17.947Z,6.70
2023-02-13T19:48:44.997Z,6.60
2023-02-13T19:51:13.706Z,6.60
2023-02-13T19:53:40.542Z,6.60
2023-02-13T19:56:07.889Z,6.50
2023-02-13T19:58:37.093Z,6.50
2023-02-13T20:01:11.434Z,6.50
2023-02-13T20:03:38.435Z,6.50
2023-02-13T20:06:16.578Z,6.50
2023-02-13T20:08:43.591Z,6.40
2023-02-13T20:11:11.067Z,6.40
2023-02-13T20:13:38.066Z,6.40
2023-02-13T20:16:10.226Z,6.50
2023-02-13T20:18:37.709Z,6.50
2023-02-13T20:21:07.734Z,6.50
2023-02-13T20:23:34.648Z,6.50
2023-02-13T20:26:05.664Z,6.60
2023-02-13T20:28:32.551Z,6.60
2023-02-13T20:31:00.703Z,6.60
2023-02-13T20:33:27.876Z,6.60
2023-02-13T20:35:55.749Z,6.70
2023-02-13T20:38:22.812Z,6.70
2023-02-13T20:40:49.751Z,6.70
2023-02-13T20:43:16.633Z,6.70
2023-02-13T20:45:43.719Z,6.70
2023-02-13T20:48:10.673Z,6.70
2023-02-13T20:50:37.504Z,6.70
2023-02-13T20:53:04.339Z,6.60
2023-02-13T20:55:31.598Z,6.60
2023-02-13T20:57:58.479Z,6.60
2023-02-13T21:00:25.626Z,6.60
2023-02-13T21:02:52.570Z,6.60
2023-02-13T21:05:19.523Z,6.60
2023-02-13T21:07:46.656Z,6.50
2023-02-13T21:10:13.618Z,6.50
2023-02-13T21:12:40.590Z,6.50
2023-02-13T21:15:07.776Z,6.50
2023-02-13T21:17:34.680Z,6.40
2023-02-13T21:20:01.531Z,6.50
2023-02-13T21:22:28.349Z,6.40
2023-02-13T21:24:55.164Z,6.50
2023-02-13T21:27:22.419Z,6.50
2023-02-13T21:29:49.328Z,6.50
2023-02-13T21:32:16.234Z,6.50
2023-02-13T21:34:43.319Z,6.50
2023-02-13T21:37:10.162Z,6.50
2023-02-13T21:39:37.285Z,6.50
2023-02-13T21:42:04.619Z,6.50
2023-02-13T21:44:31.598Z,6.50
2023-02-13T21:46:58.569Z,6.40
2023-02-13T21:49:25.717Z,6.40
2023-02-13T21:51:52.561Z,6.40
2023-02-13T21:54:19.506Z,6.40
2023-02-13T21:56:46.386Z,6.50
2023-02-13T21:59:16.824Z,6.40
2023-02-13T22:01:44.350Z,6.40
2023-02-13T22:04:11.372Z,6.40
2023-02-13T22:06:39.145Z,6.40
2023-02-13T22:09:11.007Z,6.40
2023-02-13T22:11:38.002Z,6.40
2023-02-13T22:14:07.980Z,6.40
2023-02-13T22:16:36.719Z,6.40
2023-02-13T22:19:04.069Z,6.40
2023-02-13T22:21:31.627Z,6.40
2023-02-13T22:23:58.538Z,6.40
2023-02-13T22:26:26.376Z,6.40
2023-02-13T22:28:54.077Z,6.30
2023-02-13T22:31:24.860Z,6.30
2023-02-13T22:34:02.947Z,6.30
2023-02-13T22:36:31.176Z,6.30
2023-02-13T22:38:58.329Z,6.30
2023-02-13T22:41:25.845Z,6.30
2023-02-13T22:43:52.899Z,6.30
2023-02-13T22:46:21.728Z,6.30
2023-02-13T22:48:48.813Z,6.30
2023-02-13T22:51:17.315Z,6.30
2023-02-13T22:53:44.464Z,6.30
2023-02-13T22:56:11.922Z,6.30
2023-02-13T22:58:38.783Z,6.30
2023-02-13T23:01:12.858Z,6.20
2023-02-13T23:03:39.944Z,6.30
2023-02-13T23:06:07.691Z,6.30
2023-02-13T23:08:34.597Z,6.30
2023-02-13T23:11:27.704Z,6.40
2023-02-13T23:13:54.625Z,6.40
2023-02-13T23:16:21.480Z,6.50
2023-02-13T23:18:52.486Z,6.50
2023-02-13T23:21:19.566Z,6.50
2023-02-13T23:23:46.538Z,6.60
2023-02-13T23:26:13.415Z,6.60
2023-02-13T23:28:40.301Z,6.60
2023-02-13T23:31:07.239Z,6.60
2023-02-13T23:33:34.151Z,6.60
2023-02-13T23:36:00.977Z,6.60
2023-02-13T23:38:27.979Z,6.60
2023-02-13T23:40:54.914Z,6.60
2023-02-13T23:43:21.753Z,6.50
2023-02-13T23:45:49.769Z,6.50
2023-02-13T23:48:16.728Z,6.50
2023-02-13T23:50:43.546Z,6.50
2023-02-13T23:53:10.396Z,6.50
2023-02-13T23:55:37.270Z,6.50
2023-02-13T23:58:04.175Z,6.50
